sensor_id;sensor_type;location;lat;lon;timestamp;temperature;humidity
26272;DHT22;13997;48.902;12.472;2022-10-31T00:00:20;281.70;2278.40
26272;DHT22;13997;48.902;12.472;2022-10-31T00:02:46;281.70;2278.40
26272;DHT22;13997;48.902;12.472;2022-10-31T00:05:11;281.70;2278.40
26272;DHT22;13997;48.902;12.472;2022-10-31T00:07:37;281.70;2278.40
26272;DHT22;13997;48.902;12.472;2022-10-31T00:10:03;281.70;2278.40
26272;DHT22;13997;48.902;12.472;2022-10-31T00:12:28;281.70;2278.40
26272;DHT22;13997;48.902;12.472;2022-10-31T00:14:54;281.70;2278.40
26272;DHT22;13997;48.902;12.472;2022-10-31T00:17:19;281.60;2278.40
26272;DHT22;13997;48.902;12.472;2022-10-31T00:19:45;256.90;2252.80
26272;DHT22;13997;48.902;12.472;2022-10-31T00:22:11;256.90;2252.80
26272;DHT22;13997;48.902;12.472;2022-10-31T00:24:36;256.90;2252.80
26272;DHT22;13997;48.902;12.472;2022-10-31T00:27:02;256.90;2252.80
26272;DHT22;13997;48.902;12.472;2022-10-31T00:29:27;256.90;2252.80
26272;DHT22;13997;48.902;12.472;2022-10-31T00:31:53;256.90;2252.80
26272;DHT22;13997;48.902;12.472;2022-10-31T00:34:18;256.80;2252.80
26272;DHT22;13997;48.902;12.472;2022-10-31T00:36:44;256.80;2252.80
26272;DHT22;13997;48.902;12.472;2022-10-31T00:39:10;256.80;2252.80
26272;DHT22;13997;48.902;12.472;2022-10-31T00:41:35;256.80;2252.80
26272;DHT22;13997;48.902;12.472;2022-10-31T00:44:01;256.80;2252.80
26272;DHT22;13997;48.902;12.472;2022-10-31T00:46:27;256.80;2252.80
26272;DHT22;13997;48.902;12.472;2022-10-31T00:48:53;256.80;2252.80
26272;DHT22;13997;48.902;12.472;2022-10-31T00:51:18;256.70;2252.80
26272;DHT22;13997;48.902;12.472;2022-10-31T00:53:44;256.80;2252.80
26272;DHT22;13997;48.902;12.472;2022-10-31T00:56:10;256.70;2252.80
26272;DHT22;13997;48.902;12.472;2022-10-31T00:58:35;256.80;2252.80
26272;DHT22;13997;48.902;12.472;2022-10-31T01:01:01;256.70;2252.80
26272;DHT22;13997;48.902;12.472;2022-10-31T01:03:29;256.70;2252.80
26272;DHT22;13997;48.902;12.472;2022-10-31T01:08:25;256.70;2252.80
26272;DHT22;13997;48.902;12.472;2022-10-31T01:11:02;256.70;2252.80
26272;DHT22;13997;48.902;12.472;2022-10-31T01:13:28;256.70;2252.80
26272;DHT22;13997;48.902;12.472;2022-10-31T01:15:58;256.60;2252.80
26272;DHT22;13997;48.902;12.472;2022-10-31T01:18:24;256.60;2252.80
26272;DHT22;13997;48.902;12.472;2022-10-31T01:21:15;256.70;2252.80
26272;DHT22;13997;48.902;12.472;2022-10-31T01:23:41;256.70;2252.80
26272;DHT22;13997;48.902;12.472;2022-10-31T01:26:11;256.70;2252.80
26272;DHT22;13997;48.902;12.472;2022-10-31T01:28:39;256.70;2252.80
26272;DHT22;13997;48.902;12.472;2022-10-31T01:31:08;256.70;2252.80
26272;DHT22;13997;48.902;12.472;2022-10-31T01:33:34;256.70;2252.80
26272;DHT22;13997;48.902;12.472;2022-10-31T01:36:01;256.70;2252.80
26272;DHT22;13997;48.902;12.472;2022-10-31T01:38:27;256.70;2252.80
26272;DHT22;13997;48.902;12.472;2022-10-31T01:40:52;256.70;2252.80
26272;DHT22;13997;48.902;12.472;2022-10-31T01:43:19;256.60;2252.80
26272;DHT22;13997;48.902;12.472;2022-10-31T01:45:51;256.60;2252.80
26272;DHT22;13997;48.902;12.472;2022-10-31T01:48:19;256.60;2252.80
26272;DHT22;13997;48.902;12.472;2022-10-31T01:50:46;256.70;2252.80
26272;DHT22;13997;48.902;12.472;2022-10-31T01:53:14;256.70;2252.80
26272;DHT22;13997;48.902;12.472;2022-10-31T01:55:43;256.70;2252.80
26272;DHT22;13997;48.902;12.472;2022-10-31T01:58:15;256.70;2252.80
26272;DHT22;13997;48.902;12.472;2022-10-31T02:00:43;256.70;2252.80
26272;DHT22;13997;48.902;12.472;2022-10-31T02:03:11;256.70;2252.80
26272;DHT22;13997;48.902;12.472;2022-10-31T02:05:37;256.70;2252.80
26272;DHT22;13997;48.902;12.472;2022-10-31T02:08:19;256.80;2252.80
26272;DHT22;13997;48.902;12.472;2022-10-31T02:10:47;256.80;2252.80
26272;DHT22;13997;48.902;12.472;2022-10-31T02:13:13;256.80;2252.80
26272;DHT22;13997;48.902;12.472;2022-10-31T02:15:40;256.80;2252.80
26272;DHT22;13997;48.902;12.472;2022-10-31T02:18:06;256.80;2252.80
26272;DHT22;13997;48.902;12.472;2022-10-31T02:20:57;256.80;2252.80
26272;DHT22;13997;48.902;12.472;2022-10-31T02:23:38;256.80;2252.80
26272;DHT22;13997;48.902;12.472;2022-10-31T02:26:49;256.90;2252.80
26272;DHT22;13997;48.902;12.472;2022-10-31T02:35:29;256.80;2252.80
26272;DHT22;13997;48.902;12.472;2022-10-31T02:45:51;256.60;2252.80
26272;DHT22;13997;48.902;12.472;2022-10-31T02:48:20;256.60;2252.80
26272;DHT22;13997;48.902;12.472;2022-10-31T02:50:54;256.60;2252.80
26272;DHT22;13997;48.902;12.472;2022-10-31T02:53:21;256.60;2252.80
26272;DHT22;13997;48.902;12.472;2022-10-31T02:55:57;256.60;2252.80
26272;DHT22;13997;48.902;12.472;2022-10-31T02:58:26;256.60;2252.80
26272;DHT22;13997;48.902;12.472;2022-10-31T03:04:15;256.60;2252.80
26272;DHT22;13997;48.902;12.472;2022-10-31T03:06:53;256.60;2252.80
26272;DHT22;13997;48.902;12.472;2022-10-31T03:12:06;256.60;2252.80
26272;DHT22;13997;48.902;12.472;2022-10-31T03:14:52;256.60;2252.80
26272;DHT22;13997;48.902;12.472;2022-10-31T03:20:15;256.60;2252.80
26272;DHT22;13997;48.902;12.472;2022-10-31T03:22:45;256.60;2252.80
26272;DHT22;13997;48.902;12.472;2022-10-31T03:25:12;256.60;2252.80
26272;DHT22;13997;48.902;12.472;2022-10-31T03:27:40;256.60;2252.80
26272;DHT22;13997;48.902;12.472;2022-10-31T03:30:08;256.70;2252.80
26272;DHT22;13997;48.902;12.472;2022-10-31T03:32:41;256.70;2252.80
26272;DHT22;13997;48.902;12.472;2022-10-31T03:35:08;256.70;2252.80
26272;DHT22;13997;48.902;12.472;2022-10-31T03:37:36;256.70;2252.80
26272;DHT22;13997;48.902;12.472;2022-10-31T03:40:06;256.70;2252.80
26272;DHT22;13997;48.902;12.472;2022-10-31T03:42:36;256.70;2252.80
26272;DHT22;13997;48.902;12.472;2022-10-31T03:45:20;256.60;2252.80
26272;DHT22;13997;48.902;12.472;2022-10-31T03:47:47;256.50;2252.80
26272;DHT22;13997;48.902;12.472;2022-10-31T03:50:14;256.40;2252.80
26272;DHT22;13997;48.902;12.472;2022-10-31T03:52:56;256.40;2252.80
26272;DHT22;13997;48.902;12.472;2022-10-31T03:58:08;256.40;2252.80
26272;DHT22;13997;48.902;12.472;2022-10-31T04:00:39;256.40;2252.80
26272;DHT22;13997;48.902;12.472;2022-10-31T04:03:19;256.40;2252.80
26272;DHT22;13997;48.902;12.472;2022-10-31T04:05:48;256.40;2252.80
26272;DHT22;13997;48.902;12.472;2022-10-31T04:08:22;256.50;2252.80
26272;DHT22;13997;48.902;12.472;2022-10-31T04:10:50;256.50;2252.80
26272;DHT22;13997;48.902;12.472;2022-10-31T04:13:23;256.50;2252.80
26272;DHT22;13997;48.902;12.472;2022-10-31T04:15:52;256.60;2252.80
26272;DHT22;13997;48.902;12.472;2022-10-31T04:18:19;256.70;2252.80
26272;DHT22;13997;48.902;12.472;2022-10-31T04:20:47;256.60;2252.80
26272;DHT22;13997;48.902;12.472;2022-10-31T04:23:24;256.60;2252.80
26272;DHT22;13997;48.902;12.472;2022-10-31T04:25:50;256.50;2252.80
26272;DHT22;13997;48.902;12.472;2022-10-31T04:28:15;256.50;2252.80
26272;DHT22;13997;48.902;12.472;2022-10-31T04:30:41;256.60;2252.80
26272;DHT22;13997;48.902;12.472;2022-10-31T04:33:06;256.50;2252.80
26272;DHT22;13997;48.902;12.472;2022-10-31T04:35:32;256.50;2252.80
26272;DHT22;13997;48.902;12.472;2022-10-31T04:37:57;256.40;2252.80
26272;DHT22;13997;48.902;12.472;2022-10-31T04:40:23;256.40;2252.80
26272;DHT22;13997;48.902;12.472;2022-10-31T04:42:49;256.40;2252.80
26272;DHT22;13997;48.902;12.472;2022-10-31T04:45:14;256.30;2252.80
26272;DHT22;13997;48.902;12.472;2022-10-31T04:47:40;256.30;2252.80
26272;DHT22;13997;48.902;12.472;2022-10-31T04:50:06;256.20;2252.80
26272;DHT22;13997;48.902;12.472;2022-10-31T04:52:31;256.10;2252.80
26272;DHT22;13997;48.902;12.472;2022-10-31T04:54:57;256.20;2252.80
26272;DHT22;13997;48.902;12.472;2022-10-31T04:57:22;256.20;2252.80
26272;DHT22;13997;48.902;12.472;2022-10-31T04:59:48;256.20;2252.80
26272;DHT22;13997;48.902;12.472;2022-10-31T05:02:13;256.20;2252.80
26272;DHT22;13997;48.902;12.472;2022-10-31T05:04:39;256.20;2252.80
26272;DHT22;13997;48.902;12.472;2022-10-31T05:07:04;256.20;2252.80
26272;DHT22;13997;48.902;12.472;2022-10-31T05:09:30;256.20;2252.80
26272;DHT22;13997;48.902;12.472;2022-10-31T05:11:56;256.20;2252.80
26272;DHT22;13997;48.902;12.472;2022-10-31T05:14:21;256.20;2252.80
26272;DHT22;13997;48.902;12.472;2022-10-31T05:16:47;256.20;2252.80
26272;DHT22;13997;48.902;12.472;2022-10-31T05:19:12;256.20;2252.80
26272;DHT22;13997;48.902;12.472;2022-10-31T05:21:38;256.10;2252.80
26272;DHT22;13997;48.902;12.472;2022-10-31T05:24:04;256.10;2252.80
26272;DHT22;13997;48.902;12.472;2022-10-31T05:26:29;256.10;2252.80
26272;DHT22;13997;48.902;12.472;2022-10-31T05:28:55;256.10;2252.80
26272;DHT22;13997;48.902;12.472;2022-10-31T05:31:20;256.00;2252.80
26272;DHT22;13997;48.902;12.472;2022-10-31T05:33:46;256.00;2252.80
26272;DHT22;13997;48.902;12.472;2022-10-31T05:36:12;256.10;2252.80
26272;DHT22;13997;48.902;12.472;2022-10-31T05:38:37;256.10;2252.80
26272;DHT22;13997;48.902;12.472;2022-10-31T05:41:03;256.10;2252.80
26272;DHT22;13997;48.902;12.472;2022-10-31T05:43:28;256.10;2252.80
26272;DHT22;13997;48.902;12.472;2022-10-31T05:45:55;256.20;2252.80
26272;DHT22;13997;48.902;12.472;2022-10-31T05:48:21;256.20;2252.80
26272;DHT22;13997;48.902;12.472;2022-10-31T05:50:48;256.30;2252.80
26272;DHT22;13997;48.902;12.472;2022-10-31T05:53:13;256.20;2252.80
26272;DHT22;13997;48.902;12.472;2022-10-31T05:55:41;256.20;2252.80
26272;DHT22;13997;48.902;12.472;2022-10-31T05:58:07;256.20;2252.80
26272;DHT22;13997;48.902;12.472;2022-10-31T06:00:33;256.20;2252.80
26272;DHT22;13997;48.902;12.472;2022-10-31T06:03:05;256.30;2252.80
26272;DHT22;13997;48.902;12.472;2022-10-31T06:05:32;256.30;2252.80
26272;DHT22;13997;48.902;12.472;2022-10-31T06:07:58;256.20;2252.80
26272;DHT22;13997;48.902;12.472;2022-10-31T06:10:24;256.20;2252.80
26272;DHT22;13997;48.902;12.472;2022-10-31T06:12:50;256.10;2252.80
26272;DHT22;13997;48.902;12.472;2022-10-31T06:15:17;256.10;2252.80
26272;DHT22;13997;48.902;12.472;2022-10-31T06:17:42;256.10;2252.80
26272;DHT22;13997;48.902;12.472;2022-10-31T06:20:08;256.00;2252.80
26272;DHT22;13997;48.902;12.472;2022-10-31T06:22:34;256.00;2252.80
26272;DHT22;13997;48.902;12.472;2022-10-31T06:25:00;256.00;2252.80
26272;DHT22;13997;48.902;12.472;2022-10-31T06:27:26;256.00;2252.80
26272;DHT22;13997;48.902;12.472;2022-10-31T06:29:51;256.00;2252.80
26272;DHT22;13997;48.902;12.472;2022-10-31T06:32:17;231.30;2252.80
26272;DHT22;13997;48.902;12.472;2022-10-31T06:34:43;231.30;2252.80
26272;DHT22;13997;48.902;12.472;2022-10-31T06:37:11;231.30;2252.80
26272;DHT22;13997;48.902;12.472;2022-10-31T06:39:37;231.30;2252.80
26272;DHT22;13997;48.902;12.472;2022-10-31T06:42:03;256.00;2252.80
26272;DHT22;13997;48.902;12.472;2022-10-31T06:44:29;256.00;2252.80
26272;DHT22;13997;48.902;12.472;2022-10-31T06:46:55;256.00;2252.80
26272;DHT22;13997;48.902;12.472;2022-10-31T06:49:21;256.00;2252.80
26272;DHT22;13997;48.902;12.472;2022-10-31T06:51:47;256.00;2252.80
26272;DHT22;13997;48.902;12.472;2022-10-31T06:54:13;256.00;2252.80
26272;DHT22;13997;48.902;12.472;2022-10-31T06:56:38;231.30;2252.80
26272;DHT22;13997;48.902;12.472;2022-10-31T06:59:04;256.00;2252.80
26272;DHT22;13997;48.902;12.472;2022-10-31T07:01:30;256.00;2252.80
26272;DHT22;13997;48.902;12.472;2022-10-31T07:03:55;256.10;2252.80
26272;DHT22;13997;48.902;12.472;2022-10-31T07:06:21;256.10;2252.80
26272;DHT22;13997;48.902;12.472;2022-10-31T07:08:46;256.10;2252.80
26272;DHT22;13997;48.902;12.472;2022-10-31T07:11:12;256.10;2252.80
26272;DHT22;13997;48.902;12.472;2022-10-31T07:13:38;256.20;2252.80
26272;DHT22;13997;48.902;12.472;2022-10-31T07:16:05;256.20;2252.80
26272;DHT22;13997;48.902;12.472;2022-10-31T07:18:32;256.20;2252.80
26272;DHT22;13997;48.902;12.472;2022-10-31T07:20:58;256.20;2252.80
26272;DHT22;13997;48.902;12.472;2022-10-31T07:23:24;256.30;2252.80
26272;DHT22;13997;48.902;12.472;2022-10-31T07:25:55;256.40;2252.80
26272;DHT22;13997;48.902;12.472;2022-10-31T07:28:21;256.30;2252.80
26272;DHT22;13997;48.902;12.472;2022-10-31T07:30:57;256.40;2252.80
26272;DHT22;13997;48.902;12.472;2022-10-31T07:33:24;256.40;2252.80
26272;DHT22;13997;48.902;12.472;2022-10-31T07:35:52;256.50;2252.80
26272;DHT22;13997;48.902;12.472;2022-10-31T07:38:17;256.50;2252.80
26272;DHT22;13997;48.902;12.472;2022-10-31T07:40:43;256.60;2252.80
26272;DHT22;13997;48.902;12.472;2022-10-31T07:43:12;256.70;2252.80
26272;DHT22;13997;48.902;12.472;2022-10-31T07:45:38;256.70;2252.80
26272;DHT22;13997;48.902;12.472;2022-10-31T07:48:03;256.70;2252.80
26272;DHT22;13997;48.902;12.472;2022-10-31T07:50:31;256.70;2252.80
26272;DHT22;13997;48.902;12.472;2022-10-31T07:53:03;256.70;2252.80
26272;DHT22;13997;48.902;12.472;2022-10-31T07:55:29;256.70;2252.80
26272;DHT22;13997;48.902;12.472;2022-10-31T07:57:57;256.70;2252.80
26272;DHT22;13997;48.902;12.472;2022-10-31T08:00:23;256.70;2252.80
26272;DHT22;13997;48.902;12.472;2022-10-31T08:03:06;256.70;2252.80
26272;DHT22;13997;48.902;12.472;2022-10-31T08:05:32;256.70;2252.80
26272;DHT22;13997;48.902;12.472;2022-10-31T08:07:58;256.80;2252.80
26272;DHT22;13997;48.902;12.472;2022-10-31T08:10:25;256.90;2252.80
26272;DHT22;13997;48.902;12.472;2022-10-31T08:12:58;256.90;2252.80
26272;DHT22;13997;48.902;12.472;2022-10-31T08:15:24;256.90;2252.80
26272;DHT22;13997;48.902;12.472;2022-10-31T08:17:50;281.60;2278.40
26272;DHT22;13997;48.902;12.472;2022-10-31T08:20:16;281.60;2278.40
26272;DHT22;13997;48.902;12.472;2022-10-31T08:22:42;281.60;2278.40
26272;DHT22;13997;48.902;12.472;2022-10-31T08:25:08;281.60;2278.40
26272;DHT22;13997;48.902;12.472;2022-10-31T08:27:34;281.60;2278.40
26272;DHT22;13997;48.902;12.472;2022-10-31T08:30:00;281.70;2278.40
26272;DHT22;13997;48.902;12.472;2022-10-31T08:32:25;281.80;2278.40
26272;DHT22;13997;48.902;12.472;2022-10-31T08:34:51;281.80;2278.40
26272;DHT22;13997;48.902;12.472;2022-10-31T08:37:17;281.90;2278.40
26272;DHT22;13997;48.902;12.472;2022-10-31T08:39:48;281.90;2278.40
26272;DHT22;13997;48.902;12.472;2022-10-31T08:42:14;282.00;2278.40
26272;DHT22;13997;48.902;12.472;2022-10-31T08:44:40;282.00;2278.40
26272;DHT22;13997;48.902;12.472;2022-10-31T08:47:05;282.00;2278.40
26272;DHT22;13997;48.902;12.472;2022-10-31T08:49:31;281.90;2278.40
26272;DHT22;13997;48.902;12.472;2022-10-31T08:51:56;282.00;2278.40
26272;DHT22;13997;48.902;12.472;2022-10-31T08:54:22;282.10;2278.40
26272;DHT22;13997;48.902;12.472;2022-10-31T08:56:48;282.10;2278.40
26272;DHT22;13997;48.902;12.472;2022-10-31T08:59:13;282.20;2278.40
26272;DHT22;13997;48.902;12.472;2022-10-31T09:01:39;282.20;2278.40
26272;DHT22;13997;48.902;12.472;2022-10-31T09:04:04;282.20;2278.40
26272;DHT22;13997;48.902;12.472;2022-10-31T09:06:30;282.10;2278.40
26272;DHT22;13997;48.902;12.472;2022-10-31T09:08:55;282.10;2278.40
26272;DHT22;13997;48.902;12.472;2022-10-31T09:11:21;282.20;2278.40
26272;DHT22;13997;48.902;12.472;2022-10-31T09:13:46;282.20;2278.40
26272;DHT22;13997;48.902;12.472;2022-10-31T09:16:12;282.30;2278.40
26272;DHT22;13997;48.902;12.472;2022-10-31T09:18:38;282.30;2278.40
26272;DHT22;13997;48.902;12.472;2022-10-31T09:21:03;282.30;2278.40
26272;DHT22;13997;48.902;12.472;2022-10-31T09:23:29;282.40;2278.40
26272;DHT22;13997;48.902;12.472;2022-10-31T09:25:55;282.40;2278.40
26272;DHT22;13997;48.902;12.472;2022-10-31T09:28:22;282.50;2278.40
26272;DHT22;13997;48.902;12.472;2022-10-31T09:30:50;307.20;2304.00
26272;DHT22;13997;48.902;12.472;2022-10-31T09:33:16;307.30;2304.00
26272;DHT22;13997;48.902;12.472;2022-10-31T09:35:42;307.40;2304.00
26272;DHT22;13997;48.902;12.472;2022-10-31T09:38:09;307.40;2304.00
26272;DHT22;13997;48.902;12.472;2022-10-31T09:41:07;307.50;2304.00
26272;DHT22;13997;48.902;12.472;2022-10-31T09:52:32;307.60;2304.00
26272;DHT22;13997;48.902;12.472;2022-10-31T09:55:20;307.60;2304.00
26272;DHT22;13997;48.902;12.472;2022-10-31T09:57:48;307.70;2304.00
26272;DHT22;13997;48.902;12.472;2022-10-31T10:00:19;307.80;2304.00
26272;DHT22;13997;48.902;12.472;2022-10-31T10:03:06;307.80;2304.00
26272;DHT22;13997;48.902;12.472;2022-10-31T10:08:31;307.90;2304.00
26272;DHT22;13997;48.902;12.472;2022-10-31T10:19:17;308.10;2304.00
26272;DHT22;13997;48.902;12.472;2022-10-31T10:30:07;333.00;2329.60
26272;DHT22;13997;48.902;12.472;2022-10-31T10:32:57;333.10;2329.60
26272;DHT22;13997;48.902;12.472;2022-10-31T10:35:28;333.10;2329.60
26272;DHT22;13997;48.902;12.472;2022-10-31T10:40:29;308.10;2304.00
26272;DHT22;13997;48.902;12.472;2022-10-31T10:54:39;333.20;2329.60
26272;DHT22;13997;48.902;12.472;2022-10-31T10:59:31;333.30;2329.60
26272;DHT22;13997;48.902;12.472;2022-10-31T11:01:58;333.40;2329.60
26272;DHT22;13997;48.902;12.472;2022-10-31T11:04:35;333.50;2329.60
26272;DHT22;13997;48.902;12.472;2022-10-31T11:07:06;333.50;2329.60
26272;DHT22;13997;48.902;12.472;2022-10-31T11:09:33;333.50;2329.60
26272;DHT22;13997;48.902;12.472;2022-10-31T11:12:00;333.40;2329.60
26272;DHT22;13997;48.902;12.472;2022-10-31T11:14:31;333.40;2329.60
26272;DHT22;13997;48.902;12.472;2022-10-31T11:17:56;333.40;2329.60
26272;DHT22;13997;48.902;12.472;2022-10-31T11:22:41;333.60;2329.60
26272;DHT22;13997;48.902;12.472;2022-10-31T11:27:45;333.60;2329.60
26272;DHT22;13997;48.902;12.472;2022-10-31T11:30:12;333.40;2329.60
26272;DHT22;13997;48.902;12.472;2022-10-31T11:32:44;333.30;2329.60
26272;DHT22;13997;48.902;12.472;2022-10-31T11:35:13;333.30;2329.60
26272;DHT22;13997;48.902;12.472;2022-10-31T11:37:43;333.40;2329.60
26272;DHT22;13997;48.902;12.472;2022-10-31T11:40:24;333.30;2329.60
26272;DHT22;13997;48.902;12.472;2022-10-31T11:42:52;333.20;2329.60
26272;DHT22;13997;48.902;12.472;2022-10-31T11:47:50;333.20;2329.60
26272;DHT22;13997;48.902;12.472;2022-10-31T11:52:53;333.40;2329.60
26272;DHT22;13997;48.902;12.472;2022-10-31T11:57:57;333.60;2329.60
26272;DHT22;13997;48.902;12.472;2022-10-31T12:00:32;333.60;2329.60
26272;DHT22;13997;48.902;12.472;2022-10-31T12:08:40;358.50;2329.60
26272;DHT22;13997;48.902;12.472;2022-10-31T12:16:17;358.60;2329.60
26272;DHT22;13997;48.902;12.472;2022-10-31T12:21:34;358.60;2329.60
26272;DHT22;13997;48.902;12.472;2022-10-31T12:26:38;358.80;2329.60
26272;DHT22;13997;48.902;12.472;2022-10-31T12:29:21;358.70;2329.60
26272;DHT22;13997;48.902;12.472;2022-10-31T12:51:25;359.10;2329.60
26272;DHT22;13997;48.902;12.472;2022-10-31T12:57:23;359.10;2329.60
26272;DHT22;13997;48.902;12.472;2022-10-31T13:01:50;359.00;2329.60
26272;DHT22;13997;48.902;12.472;2022-10-31T13:04:19;359.00;2329.60
26272;DHT22;13997;48.902;12.472;2022-10-31T13:06:59;359.00;2329.60
26272;DHT22;13997;48.902;12.472;2022-10-31T13:09:37;359.00;2329.60
26272;DHT22;13997;48.902;12.472;2022-10-31T13:12:10;359.00;2329.60
26272;DHT22;13997;48.902;12.472;2022-10-31T13:14:41;359.00;2329.60
26272;DHT22;13997;48.902;12.472;2022-10-31T13:17:14;358.90;2329.60
26272;DHT22;13997;48.902;12.472;2022-10-31T13:19:43;359.00;2329.60
26272;DHT22;13997;48.902;12.472;2022-10-31T13:22:14;359.00;2329.60
26272;DHT22;13997;48.902;12.472;2022-10-31T13:27:25;359.10;2329.60
26272;DHT22;13997;48.902;12.472;2022-10-31T13:30:12;359.10;2329.60
26272;DHT22;13997;48.902;12.472;2022-10-31T13:46:45;358.80;2329.60
26272;DHT22;13997;48.902;12.472;2022-10-31T13:49:40;358.70;2329.60
26272;DHT22;13997;48.902;12.472;2022-10-31T13:54:45;358.70;2329.60
26272;DHT22;13997;48.902;12.472;2022-10-31T13:57:41;358.70;2329.60
26272;DHT22;13997;48.902;12.472;2022-10-31T14:02:48;358.70;2329.60
26272;DHT22;13997;48.902;12.472;2022-10-31T14:05:26;358.70;2329.60
26272;DHT22;13997;48.902;12.472;2022-10-31T14:07:53;358.60;2329.60
26272;DHT22;13997;48.902;12.472;2022-10-31T14:10:26;358.60;2329.60
26272;DHT22;13997;48.902;12.472;2022-10-31T14:16:25;358.60;2329.60
26272;DHT22;13997;48.902;12.472;2022-10-31T14:19:03;358.50;2329.60
26272;DHT22;13997;48.902;12.472;2022-10-31T14:21:36;358.50;2329.60
26272;DHT22;13997;48.902;12.472;2022-10-31T14:26:54;358.50;2329.60
26272;DHT22;13997;48.902;12.472;2022-10-31T14:29:21;358.50;2329.60
26272;DHT22;13997;48.902;12.472;2022-10-31T14:32:18;358.40;2329.60
26272;DHT22;13997;48.902;12.472;2022-10-31T14:34:54;358.40;2329.60
26272;DHT22;13997;48.902;12.472;2022-10-31T14:37:50;333.70;2329.60
26272;DHT22;13997;48.902;12.472;2022-10-31T14:40:52;333.70;2329.60
26272;DHT22;13997;48.902;12.472;2022-10-31T14:43:57;358.40;2329.60
26272;DHT22;13997;48.902;12.472;2022-10-31T14:51:55;358.40;2329.60
26272;DHT22;13997;48.902;12.472;2022-10-31T14:54:34;358.40;2329.60
26272;DHT22;13997;48.902;12.472;2022-10-31T14:57:07;333.70;2329.60
26272;DHT22;13997;48.902;12.472;2022-10-31T14:59:41;333.70;2329.60
26272;DHT22;13997;48.902;12.472;2022-10-31T15:02:17;333.60;2329.60
26272;DHT22;13997;48.902;12.472;2022-10-31T15:04:47;333.60;2329.60
26272;DHT22;13997;48.902;12.472;2022-10-31T15:07:31;333.70;2329.60
26272;DHT22;13997;48.902;12.472;2022-10-31T15:10:31;333.60;2329.60
26272;DHT22;13997;48.902;12.472;2022-10-31T15:13:19;333.60;2329.60
26272;DHT22;13997;48.902;12.472;2022-10-31T15:15:47;333.60;2329.60
26272;DHT22;13997;48.902;12.472;2022-10-31T15:18:17;333.60;2329.60
26272;DHT22;13997;48.902;12.472;2022-10-31T15:20:45;333.60;2329.60
26272;DHT22;13997;48.902;12.472;2022-10-31T15:23:27;333.50;2329.60
26272;DHT22;13997;48.902;12.472;2022-10-31T15:26:04;333.60;2329.60
26272;DHT22;13997;48.902;12.472;2022-10-31T15:28:30;333.60;2329.60
26272;DHT22;13997;48.902;12.472;2022-10-31T15:30:58;333.60;2329.60
26272;DHT22;13997;48.902;12.472;2022-10-31T15:33:38;333.60;2329.60
26272;DHT22;13997;48.902;12.472;2022-10-31T15:36:05;333.50;2329.60
26272;DHT22;13997;48.902;12.472;2022-10-31T15:38:30;333.50;2329.60
26272;DHT22;13997;48.902;12.472;2022-10-31T15:43:54;333.40;2329.60
26272;DHT22;13997;48.902;12.472;2022-10-31T15:46:20;333.40;2329.60
26272;DHT22;13997;48.902;12.472;2022-10-31T15:48:47;333.30;2329.60
26272;DHT22;13997;48.902;12.472;2022-10-31T15:51:13;333.30;2329.60
26272;DHT22;13997;48.902;12.472;2022-10-31T15:53:46;333.30;2329.60
26272;DHT22;13997;48.902;12.472;2022-10-31T15:56:20;333.30;2329.60
26272;DHT22;13997;48.902;12.472;2022-10-31T15:58:48;333.30;2329.60
26272;DHT22;13997;48.902;12.472;2022-10-31T16:01:27;333.30;2329.60
26272;DHT22;13997;48.902;12.472;2022-10-31T16:04:22;333.30;2329.60
26272;DHT22;13997;48.902;12.472;2022-10-31T16:07:00;333.30;2329.60
26272;DHT22;13997;48.902;12.472;2022-10-31T16:09:26;333.30;2329.60
26272;DHT22;13997;48.902;12.472;2022-10-31T16:11:52;333.30;2329.60
26272;DHT22;13997;48.902;12.472;2022-10-31T16:14:25;333.30;2329.60
26272;DHT22;13997;48.902;12.472;2022-10-31T16:16:55;333.30;2329.60
26272;DHT22;13997;48.902;12.472;2022-10-31T16:20:01;333.20;2329.60
26272;DHT22;13997;48.902;12.472;2022-10-31T16:22:31;333.10;2329.60
26272;DHT22;13997;48.902;12.472;2022-10-31T16:25:13;333.10;2329.60
26272;DHT22;13997;48.902;12.472;2022-10-31T16:27:40;333.10;2329.60
26272;DHT22;13997;48.902;12.472;2022-10-31T16:30:35;333.00;2329.60
26272;DHT22;13997;48.902;12.472;2022-10-31T16:33:03;333.00;2329.60
26272;DHT22;13997;48.902;12.472;2022-10-31T16:35:35;333.00;2329.60
26272;DHT22;13997;48.902;12.472;2022-10-31T16:38:01;333.00;2329.60
26272;DHT22;13997;48.902;12.472;2022-10-31T16:40:27;332.90;2329.60
26272;DHT22;13997;48.902;12.472;2022-10-31T16:42:53;332.90;2329.60
26272;DHT22;13997;48.902;12.472;2022-10-31T16:45:24;332.90;2329.60
26272;DHT22;13997;48.902;12.472;2022-10-31T16:47:50;332.90;2329.60
26272;DHT22;13997;48.902;12.472;2022-10-31T16:50:28;332.90;2329.60
26272;DHT22;13997;48.902;12.472;2022-10-31T16:52:53;332.90;2329.60
26272;DHT22;13997;48.902;12.472;2022-10-31T16:55:20;332.90;2329.60
26272;DHT22;13997;48.902;12.472;2022-10-31T16:57:55;332.90;2329.60
26272;DHT22;13997;48.902;12.472;2022-10-31T17:00:25;332.90;2329.60
26272;DHT22;13997;48.902;12.472;2022-10-31T17:02:53;332.90;2329.60
26272;DHT22;13997;48.902;12.472;2022-10-31T17:05:21;332.90;2329.60
26272;DHT22;13997;48.902;12.472;2022-10-31T17:07:47;332.80;2329.60
26272;DHT22;13997;48.902;12.472;2022-10-31T17:10:14;332.80;2329.60
26272;DHT22;13997;48.902;12.472;2022-10-31T17:12:45;308.10;2304.00
26272;DHT22;13997;48.902;12.472;2022-10-31T17:15:24;308.10;2304.00
26272;DHT22;13997;48.902;12.472;2022-10-31T17:17:51;308.10;2304.00
26272;DHT22;13997;48.902;12.472;2022-10-31T17:22:45;308.00;2304.00
26272;DHT22;13997;48.902;12.472;2022-10-31T17:25:22;308.00;2304.00
26272;DHT22;13997;48.902;12.472;2022-10-31T17:27:49;308.00;2304.00
26272;DHT22;13997;48.902;12.472;2022-10-31T17:30:15;307.90;2304.00
26272;DHT22;13997;48.902;12.472;2022-10-31T17:32:43;307.90;2304.00
26272;DHT22;13997;48.902;12.472;2022-10-31T17:35:10;307.90;2304.00
26272;DHT22;13997;48.902;12.472;2022-10-31T17:37:37;307.90;2304.00